Time;durP1;ratioP1;P1;durP2;ratioP2;P2;SDS_P1;SDS_P2;PMS_P1;PMS_P2;Temp;Humidity;BMP_temperature;BMP_pressure;BME280_temperature;BME280_humidity;BME280_pressure;Samples;Min_cycle;Max_cycle;Signal;HPM_P1;HPM_P2
2021/07/08 00:00:24;;;;;;;;;5.00;3.75;;;;;23.69;39.28;101406.47;5078641;27;45240;-59
2021/07/08 00:02:49;;;;;;;;;5.25;5.25;;;;;23.68;39.51;101402.09;5078539;27;45386;-59
2021/07/08 00:05:17;;;;;;;;;4.50;4.25;;;;;23.68;39.46;101402.09;5078573;27;45260;-59
2021/07/08 00:07:42;;;;;;;;;4.00;4.00;;;;;23.68;39.54;101396.81;5078097;27;46149;-59
2021/07/08 00:10:12;;;;;;;;;4.00;4.00;;;;;23.68;39.48;101404.75;5077862;27;45235;-59
2021/07/08 00:12:38;;;;;;;;;4.00;3.00;;;;;23.69;39.40;101400.34;5078031;27;45500;-59
2021/07/08 00:15:10;;;;;;;;;6.00;6.00;;;;;23.68;39.48;101402.09;5078257;27;45459;-59
2021/07/08 00:17:36;;;;;;;;;5.00;5.00;;;;;23.68;39.59;101402.09;5077879;27;46812;-59
2021/07/08 00:20:09;;;;;;;;;3.00;3.00;;;;;23.68;39.56;101402.09;5077893;27;45310;-59
2021/07/08 00:22:35;;;;;;;;;6.00;3.50;;;;;23.69;39.43;101402.97;5077885;27;45318;-59
2021/07/08 00:25:01;;;;;;;;;4.25;4.00;;;;;23.67;39.39;101395.09;5077948;27;45342;-59
2021/07/08 00:27:26;;;;;;;;;6.25;4.50;;;;;23.68;39.35;101401.28;5077701;27;46203;-59
2021/07/08 00:29:51;;;;;;;;;4.50;4.50;;;;;23.68;39.66;101395.97;5076511;28;45386;-59
2021/07/08 00:32:17;;;;;;;;;6.00;5.50;;;;;23.67;39.71;101405.69;5078269;27;45452;-59
2021/07/08 00:34:43;;;;;;;;;4.25;4.00;;;;;23.65;39.79;101402.28;5077976;27;45276;-59
2021/07/08 00:37:08;;;;;;;;;6.50;5.75;;;;;23.67;39.82;101400.41;5077520;27;45993;-59
2021/07/08 00:39:34;;;;;;;;;4.00;4.00;;;;;23.66;39.89;101404.00;5077461;27;45469;-60
2021/07/08 00:41:59;;;;;;;;;4.25;4.25;;;;;23.59;39.63;101394.72;5076499;28;45618;-59
2021/07/08 00:44:24;;;;;;;;;4.75;3.75;;;;;23.63;39.52;101405.03;5077732;27;45631;-59
2021/07/08 00:46:50;;;;;;;;;3.00;3.00;;;;;23.66;39.78;101404.00;5076560;28;48243;-59
2021/07/08 00:49:16;;;;;;;;;4.00;4.00;;;;;23.66;39.73;101403.16;5077494;27;45351;-59
2021/07/08 00:51:42;;;;;;;;;4.00;4.00;;;;;23.66;39.99;101411.94;5077661;27;45236;-59
2021/07/08 00:54:08;;;;;;;;;5.75;5.75;;;;;23.64;39.81;101403.25;5077771;27;45589;-59
2021/07/08 00:56:35;;;;;;;;;5.00;4.00;;;;;23.62;39.53;101398.03;5077156;28;46408;-59
2021/07/08 00:59:10;;;;;;;;;4.25;4.25;;;;;23.64;39.83;101400.59;5077315;28;45589;-59
2021/07/08 01:01:36;;;;;;;;;5.00;5.00;;;;;23.61;40.19;101398.13;5076078;28;45466;-58
2021/07/08 01:04:03;;;;;;;;;6.00;4.75;;;;;23.65;39.69;101402.28;5077462;27;45278;-59
2021/07/08 01:06:30;;;;;;;;;5.50;4.00;;;;;23.65;39.86;101402.28;5076960;27;46241;-59
2021/07/08 01:08:56;;;;;;;;;1.50;1.00;;;;;23.61;39.92;101400.78;5077149;27;45678;-59
2021/07/08 01:11:22;;;;;;;;;3.75;3.50;;;;;23.62;40.01;101405.13;5077491;27;45441;-59
2021/07/08 01:13:48;;;;;;;;;3.50;3.50;;;;;23.61;40.25;101401.63;5077432;27;45582;-59
2021/07/08 01:16:13;;;;;;;;;5.25;5.25;;;;;23.63;40.30;101404.19;5077027;27;45736;-59
2021/07/08 01:18:39;;;;;;;;;2.75;2.75;;;;;23.61;40.07;101403.44;5076997;27;45358;-59
2021/07/08 01:21:28;;;;;;;;;3.50;3.50;;;;;23.63;40.11;101409.50;5077085;27;45259;-59
2021/07/08 01:23:56;;;;;;;;;4.25;4.25;;;;;23.62;40.17;101403.31;5076794;27;45521;-59
2021/07/08 01:26:23;;;;;;;;;4.00;4.00;;;;;23.61;40.35;101398.13;5077108;27;46736;-59
2021/07/08 01:28:50;;;;;;;;;4.00;4.00;;;;;23.61;40.18;101400.78;5076742;27;45771;-59
2021/07/08 01:31:16;;;;;;;;;5.25;3.50;;;;;23.60;40.15;101405.22;5076843;27;45426;-59
2021/07/08 01:33:41;;;;;;;;;5.00;4.00;;;;;23.63;40.39;101414.78;5077053;27;45550;-59
2021/07/08 01:36:06;;;;;;;;;3.00;2.50;;;;;23.62;40.20;101413.06;5076597;27;46318;-59
2021/07/08 01:38:32;;;;;;;;;4.00;4.00;;;;;23.60;40.38;101404.38;5076586;27;45409;-59
2021/07/08 01:40:57;;;;;;;;;4.25;4.25;;;;;23.60;40.02;101415.78;5076731;27;45327;-59
2021/07/08 01:43:22;;;;;;;;;4.00;4.00;;;;;23.61;40.42;101412.19;5077346;27;45544;-59
2021/07/08 01:45:48;;;;;;;;;5.75;3.25;;;;;23.61;40.32;101422.78;5075183;28;46969;-59
2021/07/08 01:48:13;;;;;;;;;4.50;4.50;;;;;23.61;40.51;101427.25;5076600;27;45281;-63
2021/07/08 01:50:39;;;;;;;;;3.00;3.00;;;;;23.58;40.58;101423.00;5076685;28;45381;-59
2021/07/08 01:53:04;;;;;;;;;4.00;4.00;;;;;23.60;40.55;101430.81;5076863;27;45480;-59
2021/07/08 01:55:29;;;;;;;;;4.25;4.25;;;;;23.59;40.68;101431.78;5076401;27;46739;-59
2021/07/08 01:57:57;;;;;;;;;4.75;4.75;;;;;23.60;40.70;101430.81;5076900;28;45365;-59
2021/07/08 02:00:24;;;;;;;;;4.75;4.75;;;;;23.60;40.61;101431.66;5076854;27;45307;-59
2021/07/08 02:02:54;;;;;;;;;6.50;4.00;;;;;23.61;40.67;101432.53;5076663;27;45611;-59
2021/07/08 02:05:20;;;;;;;;;6.50;4.50;;;;;23.58;40.45;101432.72;5076345;27;45399;-59
2021/07/08 02:07:45;;;;;;;;;4.00;3.50;;;;;23.59;40.31;101429.97;5076403;27;45681;-59
2021/07/08 02:10:14;;;;;;;;;4.00;4.00;;;;;23.53;40.82;101426.84;5076679;27;45899;-59
2021/07/08 02:12:39;;;;;;;;;3.50;3.50;;;;;23.59;40.67;101437.91;5076625;28;45212;-59
2021/07/08 02:15:07;;;;;;;;;4.00;3.25;;;;;23.58;40.40;101440.66;5076074;27;45550;-59
2021/07/08 02:17:33;;;;;;;;;4.00;4.00;;;;;23.59;40.72;101434.41;5076160;27;45445;-59
2021/07/08 02:19:59;;;;;;;;;4.75;4.75;;;;;23.58;40.84;101433.56;5076381;27;45418;-59
2021/07/08 02:22:24;;;;;;;;;4.75;3.25;;;;;23.57;41.29;101431.88;5076686;27;45465;-59
2021/07/08 02:24:50;;;;;;;;;5.00;3.50;;;;;23.57;40.87;101437.16;5075842;27;50444;-58
2021/07/08 02:27:15;;;;;;;;;6.25;6.25;;;;;23.57;40.73;101436.28;5076033;27;45231;-59
2021/07/08 02:29:41;;;;;;;;;3.00;3.00;;;;;23.56;40.97;101432.81;5076075;28;45435;-59
2021/07/08 02:32:08;;;;;;;;;4.75;3.25;;;;;23.53;40.95;101432.97;5076333;28;45496;-59
2021/07/08 02:34:36;;;;;;;;;4.75;4.75;;;;;23.57;40.72;101436.28;5075952;27;46201;-58
2021/07/08 02:37:02;;;;;;;;;4.50;3.00;;;;;23.55;40.76;101428.47;5078221;27;45325;-59
2021/07/08 02:39:27;;;;;;;;;3.00;3.00;;;;;23.55;41.02;101427.59;5079496;27;45594;-59
2021/07/08 02:41:53;;;;;;;;;4.75;3.75;;;;;23.55;41.08;101430.22;5078810;27;45304;-59
2021/07/08 02:44:18;;;;;;;;;6.25;5.75;;;;;23.55;40.88;101427.59;5079095;28;45301;-59
2021/07/08 02:46:43;;;;;;;;;3.00;3.00;;;;;23.55;41.08;101427.59;5079340;27;45441;-59
2021/07/08 02:49:09;;;;;;;;;5.25;3.75;;;;;23.55;40.86;101423.16;5079555;28;45321;-59
2021/07/08 02:51:34;;;;;;;;;3.00;1.25;;;;;23.55;40.87;101427.59;5079689;28;45306;-59
2021/07/08 02:53:59;;;;;;;;;3.50;3.50;;;;;23.55;40.92;101424.94;5079260;27;45968;-59
2021/07/08 02:56:25;;;;;;;;;4.75;4.50;;;;;23.51;41.11;101426.91;5079657;27;45265;-60
2021/07/08 02:58:50;;;;;;;;;7.00;4.75;;;;;23.52;41.09;101425.97;5079331;27;45226;-60
2021/07/08 03:01:16;;;;;;;;;4.50;3.75;;;;;23.53;40.93;101429.50;5079555;27;45324;-60
2021/07/08 03:03:41;;;;;;;;;3.75;3.75;;;;;23.54;41.19;101425.88;5079180;28;46907;-60
2021/07/08 03:06:06;;;;;;;;;6.00;5.00;;;;;23.52;40.99;101422.50;5078940;28;45366;-57
2021/07/08 03:08:32;;;;;;;;;5.75;5.25;;;;;23.50;41.40;101425.22;5079360;27;45298;-58
2021/07/08 03:10:58;;;;;;;;;5.00;5.00;;;;;23.50;41.48;101422.56;5079522;28;45235;-58
2021/07/08 03:13:23;;;;;;;;;6.00;4.00;;;;;23.52;41.41;101422.50;5078793;27;46197;-60
2021/07/08 03:15:48;;;;;;;;;3.50;3.50;;;;;23.52;41.15;101431.28;5079088;27;45310;-60
2021/07/08 03:18:14;;;;;;;;;3.25;3.00;;;;;23.52;41.30;101427.78;5079107;27;45361;-59
2021/07/08 03:20:39;;;;;;;;;3.50;3.50;;;;;23.51;41.56;101426.91;5079312;27;45335;-60
2021/07/08 03:23:06;;;;;;;;;4.25;4.25;;;;;23.52;41.19;101427.78;5079015;27;47436;-59
2021/07/08 03:25:32;;;;;;;;;3.50;3.50;;;;;23.50;41.23;101427.88;5078666;27;45763;-59
2021/07/08 03:27:58;;;;;;;;;4.25;4.25;;;;;23.51;41.50;101436.66;5079215;27;45303;-57
2021/07/08 03:30:27;;;;;;;;;6.75;5.00;;;;;23.51;41.74;101434.88;5077780;28;45358;-58
2021/07/08 03:32:53;;;;;;;;;3.25;3.25;;;;;23.52;41.41;101438.38;5078713;27;46350;-58
2021/07/08 03:35:18;;;;;;;;;5.25;4.00;;;;;23.50;41.35;101445.53;5078720;27;45206;-58
2021/07/08 03:37:44;;;;;;;;;5.00;4.75;;;;;23.51;41.60;101444.59;5078862;28;45263;-58
2021/07/08 03:40:12;;;;;;;;;5.00;5.00;;;;;23.50;41.29;101441.09;5078690;27;45393;-57
2021/07/08 03:42:38;;;;;;;;;4.25;4.00;;;;;23.48;41.30;101443.00;5078425;27;47127;-58
2021/07/08 03:45:07;;;;;;;;;5.00;5.00;;;;;23.50;41.59;101450.84;5078287;27;45425;-58
2021/07/08 03:47:32;;;;;;;;;3.50;2.75;;;;;23.50;41.65;101454.31;5077007;28;45367;-58
2021/07/08 03:49:57;;;;;;;;;3.75;3.75;;;;;23.49;41.23;101457.91;5078909;28;45545;-58
2021/07/08 03:52:23;;;;;;;;;4.00;4.00;;;;;23.49;41.55;101459.72;5077861;27;45413;-58
2021/07/08 03:54:48;;;;;;;;;4.00;3.75;;;;;23.50;41.66;101456.13;5078273;27;45244;-58
2021/07/08 03:57:13;;;;;;;;;6.75;5.25;;;;;23.49;41.59;101459.72;5078339;28;45219;-58
2021/07/08 03:59:39;;;;;;;;;4.00;4.00;;;;;23.50;41.45;101456.13;5078522;28;45228;-58
2021/07/08 04:02:04;;;;;;;;;4.50;3.75;;;;;23.49;41.46;101460.56;5078111;27;45984;-58
2021/07/08 04:04:30;;;;;;;;;4.75;4.00;;;;;23.49;41.60;101467.66;5078278;27;45279;-58
2021/07/08 04:06:56;;;;;;;;;3.25;3.25;;;;;23.50;41.61;101472.00;5078425;27;45421;-59
2021/07/08 04:09:21;;;;;;;;;4.50;3.50;;;;;23.47;41.50;101473.88;5078397;27;45308;-58
2021/07/08 04:11:47;;;;;;;;;4.50;4.00;;;;;23.47;41.71;101483.63;5077823;27;45443;-58
2021/07/08 04:14:12;;;;;;;;;4.25;4.25;;;;;23.47;41.86;101486.25;5078043;28;45352;-58
2021/07/08 04:16:37;;;;;;;;;4.75;4.75;;;;;23.47;41.37;101492.41;5078076;28;45646;-57
2021/07/08 04:19:03;;;;;;;;;4.50;4.50;;;;;23.46;41.75;101488.03;5076989;28;45672;-57
2021/07/08 04:21:29;;;;;;;;;4.00;4.00;;;;;23.46;41.77;101492.50;5078141;27;45907;-57
2021/07/08 04:23:54;;;;;;;;;3.00;3.00;;;;;23.47;41.87;101489.75;5077790;27;45440;-58
2021/07/08 04:26:20;;;;;;;;;4.75;4.00;;;;;23.44;41.87;101479.34;5077906;28;45335;-59
2021/07/08 04:28:45;;;;;;;;;5.50;5.00;;;;;23.46;41.55;101492.50;5078017;27;45370;-59
2021/07/08 04:31:15;;;;;;;;;5.00;4.00;;;;;23.44;42.01;101483.78;5077646;27;46299;-58
2021/07/08 04:33:40;;;;;;;;;4.00;3.75;;;;;23.47;42.03;101486.25;5077724;27;45469;-59
2021/07/08 04:36:06;;;;;;;;;5.00;5.00;;;;;23.46;41.77;101489.84;5077780;27;45318;-59
2021/07/08 04:38:31;;;;;;;;;4.00;4.00;;;;;23.44;41.95;101476.69;5076726;28;45463;-59
2021/07/08 04:40:57;;;;;;;;;4.50;4.50;;;;;23.47;41.81;101478.34;5077406;27;46005;-58
2021/07/08 04:43:22;;;;;;;;;4.75;4.00;;;;;23.44;41.87;101479.34;5077548;28;45484;-58
2021/07/08 04:45:51;;;;;;;;;4.50;3.75;;;;;23.47;41.99;101492.41;5076383;28;45251;-58
2021/07/08 04:48:17;;;;;;;;;3.75;3.75;;;;;23.47;42.01;101483.63;5077823;27;45504;-58
2021/07/08 04:50:43;;;;;;;;;3.00;3.00;;;;;23.46;41.94;101482.75;5077367;27;45314;-58
2021/07/08 04:53:08;;;;;;;;;5.00;5.00;;;;;23.47;42.14;101489.75;5076126;28;46101;-59
2021/07/08 04:55:34;;;;;;;;;4.50;4.50;;;;;23.47;42.06;101494.22;5077661;28;45196;-58
2021/07/08 04:57:59;;;;;;;;;4.00;4.00;;;;;23.47;42.21;101494.22;5077972;27;45259;-59
2021/07/08 05:00:25;;;;;;;;;4.50;3.25;;;;;23.47;42.45;101492.41;5076468;27;45978;-58
2021/07/08 05:02:52;;;;;;;;;6.50;6.00;;;;;23.49;42.11;101502.03;5076112;28;45656;-59
2021/07/08 05:05:18;;;;;;;;;4.25;3.25;;;;;23.47;42.20;101495.03;5077339;27;45329;-60
2021/07/08 05:07:44;;;;;;;;;5.00;5.00;;;;;23.46;42.38;101493.34;5077412;27;45522;-59
2021/07/08 05:10:14;;;;;;;;;3.75;3.75;;;;;23.48;42.50;101506.50;5077023;27;46078;-59
2021/07/08 05:12:40;;;;;;;;;4.00;4.00;;;;;23.47;42.28;101502.16;5077107;27;45862;-59
2021/07/08 05:15:07;;;;;;;;;4.00;4.00;;;;;23.45;42.27;101502.22;5077522;27;45208;-59
2021/07/08 05:17:33;;;;;;;;;3.00;3.00;;;;;23.47;42.46;101512.72;5077793;27;45406;-59
2021/07/08 05:19:58;;;;;;;;;3.50;3.50;;;;;23.46;42.34;101509.22;5076884;28;46206;-59
2021/07/08 05:22:24;;;;;;;;;3.75;3.00;;;;;23.45;42.36;101507.50;5077064;27;45329;-59
2021/07/08 05:24:49;;;;;;;;;3.25;3.25;;;;;23.46;42.51;101513.66;5077065;27;45409;-59
2021/07/08 05:27:16;;;;;;;;;3.75;3.75;;;;;23.46;42.41;101514.50;5076071;28;45588;-59
2021/07/08 05:29:42;;;;;;;;;4.00;4.00;;;;;23.45;42.48;101507.50;5076839;27;46609;-59
2021/07/08 05:32:08;;;;;;;;;5.00;4.25;;;;;23.47;42.30;101513.56;5076803;27;45492;-59
2021/07/08 05:34:33;;;;;;;;;4.75;4.25;;;;;23.48;42.60;101514.44;5077240;27;45342;-59
2021/07/08 05:36:59;;;;;;;;;7.00;5.75;;;;;23.47;42.56;101513.56;5077173;27;45707;-59
2021/07/08 05:39:24;;;;;;;;;5.00;5.00;;;;;23.50;42.55;101519.63;5076436;27;45346;-59
2021/07/08 05:41:49;;;;;;;;;4.00;4.00;;;;;23.49;42.47;101526.69;5076752;27;45350;-60
2021/07/08 05:44:15;;;;;;;;;4.00;4.00;;;;;23.51;42.62;101526.63;5076855;27;45290;-60
2021/07/08 05:46:40;;;;;;;;;5.00;4.50;;;;;23.52;42.55;101528.34;5076948;27;45311;-60
2021/07/08 05:49:05;;;;;;;;;6.00;4.50;;;;;23.52;42.48;101534.47;5076911;28;46448;-61
2021/07/08 05:51:31;;;;;;;;;4.00;4.00;;;;;23.53;42.46;101532.69;5075130;28;45405;-59
2021/07/08 05:53:59;;;;;;;;;5.50;4.75;;;;;23.54;42.86;101534.38;5076747;27;45840;-59
2021/07/08 05:56:25;;;;;;;;;4.00;4.00;;;;;23.52;42.59;101530.97;5076783;27;45584;-59
2021/07/08 05:58:51;;;;;;;;;5.00;5.00;;;;;23.55;42.99;101538.72;5076305;27;45437;-60
2021/07/08 06:01:16;;;;;;;;;6.00;5.00;;;;;23.53;43.05;101538.81;5076446;27;45647;-59
2021/07/08 06:03:42;;;;;;;;;5.00;4.50;;;;;23.56;43.10;101535.13;5076525;27;45217;-59
2021/07/08 06:06:07;;;;;;;;;5.00;4.00;;;;;23.54;42.89;101523.78;5076842;27;45193;-59
2021/07/08 06:08:32;;;;;;;;;5.00;5.00;;;;;23.57;42.94;101528.91;5076184;27;45307;-59
2021/07/08 06:10:58;;;;;;;;;4.00;4.00;;;;;23.56;42.50;101521.91;5078386;28;45410;-59
2021/07/08 06:13:23;;;;;;;;;4.00;4.00;;;;;23.57;42.53;101527.13;5080122;28;45367;-59
2021/07/08 06:15:48;;;;;;;;;6.00;5.00;;;;;23.58;43.00;101534.13;5080218;27;45467;-59
2021/07/08 06:18:14;;;;;;;;;5.00;4.00;;;;;23.61;43.11;101541.88;5079781;28;45873;-60
2021/07/08 06:20:39;;;;;;;;;4.75;4.75;;;;;23.63;42.89;101547.09;5079732;28;45311;-59
2021/07/08 06:23:04;;;;;;;;;5.00;5.00;;;;;23.64;43.01;101540.88;5080222;27;45314;-59
2021/07/08 06:25:30;;;;;;;;;7.25;5.50;;;;;23.62;42.62;101548.88;5076162;27;45667;-59
2021/07/08 06:27:56;;;;;;;;;5.50;5.50;;;;;23.61;42.79;101548.97;5096105;27;47226;-59
2021/07/08 06:30:21;;;;;;;;;4.25;4.25;;;;;23.60;42.54;101558.69;5099631;27;45313;-59
2021/07/08 06:32:47;;;;;;;;;4.75;4.00;;;;;23.59;42.86;101556.97;5099964;27;45578;-59
2021/07/08 06:35:17;;;;;;;;;5.00;5.00;;;;;23.58;43.06;101550.00;5100096;27;45364;-59
2021/07/08 06:37:42;;;;;;;;;4.00;4.00;;;;;23.59;42.79;101556.97;5099424;27;45644;-59
2021/07/08 06:40:09;;;;;;;;;7.00;6.00;;;;;23.59;43.11;101566.72;5099737;27;45318;-59
2021/07/08 06:42:34;;;;;;;;;5.00;4.00;;;;;23.58;42.70;101570.31;5099676;27;45476;-59
2021/07/08 06:45:00;;;;;;;;;5.00;5.00;;;;;23.54;43.17;101566.13;5099854;27;45752;-59
2021/07/08 06:47:29;;;;;;;;;4.00;4.00;;;;;23.50;43.07;101556.66;5099415;27;45291;-59
2021/07/08 06:49:56;;;;;;;;;4.50;4.50;;;;;23.50;43.05;101560.16;5099624;27;45223;-59
2021/07/08 06:52:21;;;;;;;;;4.50;4.50;;;;;23.48;43.37;101564.69;5099952;27;45225;-59
2021/07/08 06:54:46;;;;;;;;;3.75;3.00;;;;;23.49;43.15;101570.81;5099777;27;45354;-60
2021/07/08 06:57:12;;;;;;;;;4.00;4.00;;;;;23.47;43.44;101574.41;5099477;27;46015;-60
2021/07/08 06:59:37;;;;;;;;;5.75;4.00;;;;;23.45;43.37;101581.56;5099308;27;56552;-59
2021/07/08 07:02:02;;;;;;;;;6.25;5.00;;;;;23.47;43.28;101586.81;5099731;27;45206;-60
2021/07/08 07:04:28;;;;;;;;;5.00;5.00;;;;;23.45;43.42;101581.56;5099858;27;45338;-60
2021/07/08 07:06:53;;;;;;;;;7.00;7.00;;;;;23.43;43.56;101588.75;5115407;27;46786;-59
2021/07/08 07:09:19;;;;;;;;;9.25;5.00;;;;;23.44;43.50;101593.09;5099652;27;45195;-59
2021/07/08 07:11:45;;;;;;;;;6.75;5.25;;;;;23.44;43.46;101597.53;5099669;27;45495;-59
2021/07/08 07:14:10;;;;;;;;;5.50;5.50;;;;;23.41;43.89;101595.94;5097803;27;45421;-59
2021/07/08 07:16:35;;;;;;;;;5.25;5.25;;;;;23.38;43.69;101589.94;5099328;27;46043;-59
2021/07/08 07:19:01;;;;;;;;;8.25;6.50;;;;;23.38;43.60;101590.81;5099336;27;45395;-59
2021/07/08 07:21:26;;;;;;;;;5.75;5.75;;;;;23.37;43.53;101588.25;5098946;27;45991;-59
2021/07/08 07:23:51;;;;;;;;;4.00;4.00;;;;;23.31;43.82;101590.28;5099360;27;45454;-59
2021/07/08 07:26:20;;;;;;;;;5.00;5.00;;;;;23.35;44.07;101598.91;5099055;27;46163;-59
2021/07/08 07:28:46;;;;;;;;;8.50;6.00;;;;;23.34;43.91;101601.66;5099213;27;45734;-59
2021/07/08 07:31:12;;;;;;;;;6.00;5.75;;;;;23.29;44.25;101597.44;5099718;27;45273;-59
2021/07/08 07:33:37;;;;;;;;;4.00;4.00;;;;;23.30;44.06;101598.31;5099750;27;45591;-59
2021/07/08 07:36:03;;;;;;;;;4.50;4.50;;;;;23.29;44.06;101596.59;5098900;27;45264;-59
2021/07/08 07:38:29;;;;;;;;;5.50;5.50;;;;;23.27;44.24;101601.97;5098880;27;45555;-59
2021/07/08 07:40:55;;;;;;;;;4.25;4.25;;;;;23.25;44.63;101600.34;5099186;27;45447;-59
2021/07/08 07:43:22;;;;;;;;;7.75;4.25;;;;;23.24;44.27;101603.94;5099335;27;45468;-59
2021/07/08 07:45:49;;;;;;;;;8.00;6.00;;;;;23.24;44.38;101603.94;5098316;27;46096;-59
2021/07/08 07:48:15;;;;;;;;;5.00;4.00;;;;;23.24;44.60;101614.50;5098935;27;45409;-59
2021/07/08 07:50:40;;;;;;;;;6.75;5.00;;;;;23.23;44.39;101608.38;5099380;27;45346;-59
2021/07/08 07:53:06;;;;;;;;;6.00;6.00;;;;;23.21;44.56;101606.72;5099116;27;45609;-59
2021/07/08 07:55:32;;;;;;;;;9.75;8.00;;;;;23.23;44.32;101612.78;5098724;27;46221;-59
2021/07/08 07:57:58;;;;;;;;;6.50;5.00;;;;;23.23;44.57;101612.78;5098738;27;45367;-59
2021/07/08 08:00:26;;;;;;;;;7.50;6.00;;;;;23.24;44.63;101622.44;5099035;27;45313;-59
2021/07/08 08:02:52;;;;;;;;;7.25;5.25;;;;;23.23;44.70;101613.66;5097742;27;45612;-59
2021/07/08 08:10:28;;;;;;;;;6.75;5.75;;;;;23.26;44.58;101621.41;5098645;27;45321;-60
2021/07/08 08:12:54;;;;;;;;;3.75;3.75;;;;;23.25;44.46;101616.22;5098856;27;45608;-59
2021/07/08 08:15:19;;;;;;;;;4.75;4.75;;;;;23.27;44.52;101619.63;5098283;27;46160;-59
2021/07/08 08:17:46;;;;;;;;;5.50;5.50;;;;;23.28;44.55;101610.78;5098284;27;45387;-59
2021/07/08 08:20:13;;;;;;;;;5.75;5.00;;;;;23.28;44.75;101610.78;5098732;27;45272;-59
2021/07/08 08:22:40;;;;;;;;;6.50;4.00;;;;;23.27;44.57;101604.59;5098663;27;45437;-59
2021/07/08 08:25:06;;;;;;;;;5.00;5.00;;;;;23.29;44.43;101618.59;5098261;27;47321;-59
2021/07/08 08:27:31;;;;;;;;;4.00;4.00;;;;;23.30;44.52;101611.53;5098305;27;45386;-59
2021/07/08 08:29:57;;;;;;;;;5.00;5.00;;;;;23.29;44.65;101615.13;5098361;27;45375;-59
2021/07/08 08:32:22;;;;;;;;;7.75;5.00;;;;;23.30;44.50;101614.19;5098452;27;45576;-59
2021/07/08 08:34:47;;;;;;;;;5.25;5.00;;;;;23.32;44.46;101612.28;5096943;27;45288;-59
2021/07/08 08:37:13;;;;;;;;;5.75;5.75;;;;;23.35;44.36;101606.84;5098530;27;45364;-60
2021/07/08 08:39:38;;;;;;;;;5.00;5.00;;;;;23.35;44.58;101606.00;5098145;27;45280;-59
2021/07/08 08:42:08;;;;;;;;;5.50;5.50;;;;;23.39;44.26;101612.81;5098160;27;45316;-59
2021/07/08 08:44:35;;;;;;;;;4.25;4.25;;;;;23.39;44.40;101602.22;5097913;27;45464;-59
2021/07/08 08:47:01;;;;;;;;;10.00;5.00;;;;;23.39;44.63;101611.03;5097956;27;45724;-60
2021/07/08 08:49:26;;;;;;;;;5.00;4.50;;;;;23.41;44.51;101611.81;5098154;27;45768;-59
2021/07/08 08:51:53;;;;;;;;;5.25;5.00;;;;;23.40;44.67;101602.16;5098340;27;45595;-59
2021/07/08 08:54:19;;;;;;;;;6.50;5.25;;;;;23.43;44.53;101609.06;5097913;27;45333;-60
2021/07/08 08:56:45;;;;;;;;;9.75;5.50;;;;;23.44;44.47;101616.06;5098158;27;45266;-61
2021/07/08 08:59:10;;;;;;;;;5.00;5.00;;;;;23.44;44.46;101614.25;5097884;27;45294;-59
2021/07/08 09:01:35;;;;;;;;;4.00;4.00;;;;;23.44;44.24;101611.63;5098059;27;45705;-59
2021/07/08 09:04:01;;;;;;;;;4.50;4.50;;;;;23.44;44.42;101613.41;5097673;27;46549;-59
2021/07/08 09:06:36;;;;;;;;;6.25;5.00;;;;;23.46;44.34;101604.44;5097701;27;45242;-60
2021/07/08 09:09:07;;;;;;;;;5.00;5.00;;;;;23.47;44.41;101605.31;5097810;27;45428;-59
2021/07/08 09:11:34;;;;;;;;;5.50;4.75;;;;;23.51;44.05;101606.00;5097965;27;45405;-59
2021/07/08 09:14:02;;;;;;;;;6.00;5.00;;;;;23.50;43.88;101601.63;5097447;27;46468;-59
2021/07/08 09:16:39;;;;;;;;;5.00;5.00;;;;;23.58;44.35;101607.34;5097576;27;45400;-51
2021/07/08 09:19:21;;;;;;;;;5.25;5.25;;;;;23.61;44.01;101607.19;5097702;27;45350;-49
2021/07/08 09:21:52;;;;;;;;;6.00;6.00;;;;;23.62;44.11;101614.19;5098100;27;45584;-52
2021/07/08 09:24:21;;;;;;;;;7.00;7.00;;;;;23.63;43.95;101602.66;5097442;27;46515;-53
2021/07/08 09:27:08;;;;;;;;;6.00;5.25;;;;;23.61;43.69;101609.81;5097654;27;45472;-46
2021/07/08 09:29:43;;;;;;;;;4.00;4.00;;;;;23.59;43.63;101609.06;5097354;27;45238;-49
2021/07/08 09:32:14;;;;;;;;;4.50;4.50;;;;;23.57;43.71;101605.63;5097665;27;45229;-47
2021/07/08 09:34:41;;;;;;;;;7.25;6.25;;;;;23.59;43.71;101606.41;5096850;27;46007;-50
2021/07/08 09:37:14;;;;;;;;;6.00;4.75;;;;;23.59;43.23;101606.41;5096869;27;45345;-51
2021/07/08 09:39:47;;;;;;;;;3.75;3.75;;;;;23.59;42.64;101603.75;5095563;27;45526;-56
2021/07/08 09:42:15;;;;;;;;;5.50;4.50;;;;;23.59;42.67;101593.19;5096505;27;45492;-58
2021/07/08 09:44:40;;;;;;;;;5.50;4.25;;;;;23.58;42.49;101602.06;5096272;27;46426;-58
2021/07/08 09:47:23;;;;;;;;;5.50;5.50;;;;;23.60;42.89;101600.19;5097023;27;45267;-59
2021/07/08 09:49:48;;;;;;;;;6.50;5.00;;;;;23.58;42.72;101591.47;5097611;27;45422;-57
2021/07/08 09:52:14;;;;;;;;;5.00;5.00;;;;;23.58;42.86;101587.06;5097420;27;45256;-57
2021/07/08 09:57:35;;;;;;;;;6.25;6.25;;;;;23.64;42.81;101593.78;5097125;27;45771;-56
2021/07/08 10:00:22;;;;;;;;;5.75;4.50;;;;;23.64;43.17;101593.78;5097193;27;45373;-58
2021/07/08 10:02:49;;;;;;;;;5.00;5.00;;;;;23.66;43.25;101599.81;5097378;27;45229;-57
2021/07/08 10:05:15;;;;;;;;;6.00;5.75;;;;;23.67;43.32;101590.09;5096981;27;46368;-58
2021/07/08 10:07:42;;;;;;;;;6.50;5.00;;;;;23.67;43.43;101598.88;5096704;27;45459;-56
2021/07/08 10:10:08;;;;;;;;;9.00;7.00;;;;;23.67;42.94;101596.25;5096921;27;45555;-54
2021/07/08 10:12:36;;;;;;;;;5.50;5.50;;;;;23.67;43.18;101595.41;5096898;27;45299;-50
2021/07/08 10:15:05;;;;;;;;;5.75;5.25;;;;;23.65;42.96;101598.13;5096295;27;45385;-51
2021/07/08 10:17:33;;;;;;;;;7.00;6.00;;;;;23.64;43.16;101588.50;5095538;27;45732;-49
2021/07/08 10:19:59;;;;;;;;;6.00;6.00;;;;;23.64;43.10;101591.16;5096702;27;45420;-46
2021/07/08 10:22:24;;;;;;;;;6.00;6.00;;;;;23.61;43.01;101586.00;5096881;27;45571;-42
2021/07/08 10:24:51;;;;;;;;;9.00;6.75;;;;;23.63;43.04;101594.72;5096624;27;46105;-47
2021/07/08 10:27:18;;;;;;;;;7.00;6.00;;;;;23.66;42.81;101598.97;5096879;27;45296;-43
2021/07/08 10:29:45;;;;;;;;;54.00;43.25;;;;;23.62;43.34;101593.00;5096669;27;45335;-49
2021/07/08 10:32:15;;;;;;;;;71.50;53.25;;;;;23.67;43.72;101598.03;5096794;27;45244;-54
2021/07/08 10:34:48;;;;;;;;;43.00;35.50;;;;;23.67;43.70;101596.25;5096129;27;46108;-45
2021/07/08 10:37:28;;;;;;;;;26.25;24.75;;;;;23.66;43.88;101594.53;5096243;27;45415;-44
2021/07/08 10:39:58;;;;;;;;;14.00;12.25;;;;;23.67;43.09;101590.09;5096321;27;45222;-42
2021/07/08 10:42:43;;;;;;;;;13.50;13.25;;;;;23.69;42.88;101594.38;5096194;27;45409;-43
2021/07/08 10:45:29;;;;;;;;;10.50;8.75;;;;;23.68;42.91;101583.88;5095914;27;47175;-46
2021/07/08 10:48:10;;;;;;;;;12.25;10.25;;;;;23.68;42.94;101597.94;5084605;27;45379;-43
2021/07/08 10:50:36;;;;;;;;;8.50;7.75;;;;;23.68;42.98;101602.41;5096277;27;45555;-44
2021/07/08 10:53:13;;;;;;;;;10.00;6.75;;;;;23.68;42.75;101602.41;5096568;27;45464;-45
2021/07/08 10:55:42;;;;;;;;;9.00;8.00;;;;;23.67;42.65;101606.81;5095926;27;46249;-43
2021/07/08 10:58:39;;;;;;;;;8.75;7.50;;;;;23.68;42.84;101597.94;5098096;27;45298;-45
2021/07/08 11:01:07;;;;;;;;;10.50;9.25;;;;;23.67;42.79;101598.88;5099334;27;45297;-45
2021/07/08 11:03:46;;;;;;;;;7.00;7.00;;;;;23.68;42.60;101608.53;5099336;27;45341;-47
2021/07/08 11:06:16;;;;;;;;;7.00;6.50;;;;;23.69;42.82;101599.66;5099202;27;46533;-47
2021/07/08 11:08:45;;;;;;;;;8.00;8.00;;;;;23.68;42.95;101611.19;5099161;27;45951;-46
2021/07/08 11:11:21;;;;;;;;;8.25;6.75;;;;;23.69;42.96;101604.09;5099623;27;45390;-44
2021/07/08 11:13:47;;;;;;;;;8.75;7.75;;;;;23.69;43.03;101610.25;5099479;27;45270;-43
2021/07/08 11:16:52;;;;;;;;;8.00;8.00;;;;;23.67;43.14;101617.41;5099140;27;46174;-52
2021/07/08 11:19:20;;;;;;;;;6.25;6.25;;;;;23.68;43.08;101613.81;5099689;27;45751;-45
2021/07/08 11:21:55;;;;;;;;;6.50;6.50;;;;;23.69;43.12;101610.25;5099539;27;45505;-48
2021/07/08 11:24:40;;;;;;;;;7.00;6.00;;;;;23.72;43.29;101610.06;5099688;27;45526;-47
2021/07/08 11:27:08;;;;;;;;;8.25;6.25;;;;;23.75;42.98;101615.22;5099109;27;47333;-43
2021/07/08 11:29:36;;;;;;;;;8.00;8.00;;;;;23.78;43.46;101609.72;5132414;27;45440;-47
2021/07/08 11:32:26;;;;;;;;;7.00;5.00;;;;;23.82;43.06;101617.50;5099316;27;45356;-44